createdAt,value
2022-11-24T00:03:40.627Z,5.9
2022-11-24T00:08:42.800Z,5.9
2022-11-24T00:13:44.949Z,5.9
2022-11-24T00:18:47.359Z,5.9
2022-11-24T00:23:49.464Z,5.8
2022-11-24T00:28:51.764Z,5.9
2022-11-24T00:33:53.887Z,5.9
2022-11-24T00:38:57.118Z,5.9
2022-11-24T00:43:59.132Z,5.9
2022-11-24T00:49:01.346Z,5.9
2022-11-24T00:54:03.373Z,5.9
2022-11-24T00:59:05.352Z,5.9
2022-11-24T01:04:07.299Z,5.8
2022-11-24T01:09:09.327Z,5.8
2022-11-24T01:14:11.388Z,5.8
2022-11-24T01:19:13.482Z,5.8
2022-11-24T01:24:15.487Z,5.8
2022-11-24T01:29:17.702Z,5.8
2022-11-24T01:34:19.846Z,5.8
2022-11-24T01:39:22.063Z,5.8
2022-11-24T01:44:24.183Z,5.8
2022-11-24T01:49:26.304Z,5.8
2022-11-24T01:54:28.298Z,5.8
2022-11-24T02:04:31.022Z,5.7
2022-11-24T02:09:33.795Z,5.8
2022-11-24T02:14:36.562Z,5.8
2022-11-24T02:19:38.725Z,5.8
2022-11-24T02:24:40.715Z,5.8
2022-11-24T02:29:42.748Z,5.8
2022-11-24T02:34:44.886Z,5.7
2022-11-24T02:39:46.983Z,5.7
2022-11-24T02:44:49.081Z,5.7
2022-11-24T02:49:51.209Z,5.8
2022-11-24T02:54:53.552Z,5.7
2022-11-24T02:59:55.639Z,5.7
2022-11-24T03:04:57.683Z,5.7
2022-11-24T03:09:59.763Z,5.6
2022-11-24T03:15:01.866Z,5.7
2022-11-24T03:20:07.311Z,5.8
2022-11-24T03:25:09.340Z,5.8
2022-11-24T03:30:11.408Z,5.8
2022-11-24T03:35:13.489Z,5.8
2022-11-24T03:40:15.736Z,5.8
2022-11-24T03:45:47.691Z,5.9
2022-11-24T03:50:19.759Z,5.8
2022-11-24T03:55:21.833Z,5.9
2022-11-24T04:00:24.372Z,5.8
2022-11-24T04:05:26.508Z,5.8
2022-11-24T04:10:29.047Z,5.8
2022-11-24T04:15:31.263Z,5.8
2022-11-24T04:20:33.682Z,5.8
2022-11-24T04:25:36.310Z,5.8
2022-11-24T04:35:38.909Z,5.8
2022-11-24T04:40:40.988Z,5.7
2022-11-24T04:45:43.079Z,5.7
2022-11-24T04:50:45.773Z,5.7
2022-11-24T04:55:47.867Z,5.7
2022-11-24T05:00:50.084Z,5.7
2022-11-24T05:05:52.269Z,5.6
2022-11-24T05:10:54.384Z,5.5
2022-11-24T05:15:56.952Z,5.5
2022-11-24T05:20:59.236Z,5.5
2022-11-24T05:26:01.266Z,5.5
2022-11-24T05:31:03.846Z,5.4
2022-11-24T05:36:06.298Z,5.4
2022-11-24T05:41:08.435Z,5.4
2022-11-24T05:46:10.451Z,5.3
2022-11-24T05:56:13.164Z,5.3
2022-11-24T06:01:15.222Z,5.3
2022-11-24T06:06:17.392Z,5.3
2022-11-24T06:11:19.436Z,5.3
2022-11-24T06:16:21.693Z,5.3
2022-11-24T06:21:25.005Z,5.3
2022-11-24T06:26:27.588Z,5.3
2022-11-24T06:31:29.717Z,5.3
2022-11-24T06:36:31.717Z,5.3
2022-11-24T06:41:33.779Z,5.4
2022-11-24T06:46:35.936Z,5.4
2022-11-24T06:51:38.007Z,5.6
2022-11-24T06:56:40.118Z,5.5
2022-11-24T07:01:42.235Z,5.5
2022-11-24T07:06:44.515Z,5.6
2022-11-24T07:11:47.036Z,5.7
2022-11-24T07:16:49.160Z,5.7
2022-11-24T07:21:51.571Z,5.6
2022-11-24T07:26:53.643Z,5.6
2022-11-24T07:31:56.859Z,5.5
2022-11-24T07:36:56.462Z,5.3
2022-11-24T07:41:58.644Z,5.1
2022-11-24T07:47:00.624Z,4.9
2022-11-24T07:52:02.618Z,4.9
2022-11-24T07:57:04.613Z,4.9
2022-11-24T08:02:06.830Z,5
2022-11-24T08:07:09.006Z,5.1
2022-11-24T08:12:11.072Z,5.2
2022-11-24T08:17:13.366Z,5.4
2022-11-24T08:22:15.607Z,5.5
2022-11-24T08:27:17.827Z,5.5
2022-11-24T08:32:24.323Z,5.6
2022-11-24T08:37:26.442Z,5.6
2022-11-24T08:42:28.390Z,5.4
2022-11-24T08:47:30.492Z,5.4
2022-11-24T08:52:32.575Z,5.4
2022-11-24T08:57:34.633Z,5.6
2022-11-24T09:02:36.809Z,5.6
2022-11-24T09:07:39.131Z,5.7
2022-11-24T09:12:41.264Z,5.8
2022-11-24T09:17:43.527Z,5.8
2022-11-24T09:22:45.874Z,5.9
2022-11-24T09:27:48.065Z,6
2022-11-24T09:32:50.170Z,6
2022-11-24T09:37:52.252Z,6.1
2022-11-24T09:42:55.627Z,6.1
2022-11-24T09:47:57.633Z,6.1
2022-11-24T09:52:59.798Z,6.2
2022-11-24T09:58:01.787Z,6.2
2022-11-24T10:03:03.782Z,6.1
2022-11-24T10:08:05.798Z,6.1
2022-11-24T10:13:07.841Z,6.1
2022-11-24T10:18:18.325Z,6.1
2022-11-24T10:23:10.395Z,6
2022-11-24T10:28:12.370Z,6.2
2022-11-24T10:33:14.374Z,6.2
2022-11-24T10:38:16.312Z,6.3
2022-11-24T10:43:18.322Z,6.4
2022-11-24T10:53:20.708Z,6.5
2022-11-24T10:58:22.754Z,6.7
2022-11-24T11:03:24.926Z,6.8
2022-11-24T11:08:27.128Z,6.8
2022-11-24T11:13:29.142Z,6.8
2022-11-24T11:18:31.187Z,6.9
2022-11-24T11:23:33.236Z,6.8
2022-11-24T11:28:35.317Z,7
2022-11-24T11:34:18.366Z,6.9
2022-11-24T11:38:41.733Z,7
2022-11-24T11:43:43.867Z,7
2022-11-24T11:48:45.859Z,7.1
2022-11-24T11:53:47.912Z,7.2
2022-11-24T11:58:49.993Z,7.3
2022-11-24T12:03:52.732Z,7.4
2022-11-24T12:09:34.502Z,7.5
2022-11-24T12:13:57.097Z,7.6
2022-11-24T12:19:00.595Z,7.7
2022-11-24T12:24:02.938Z,7.7
2022-11-24T12:29:05.133Z,7.9
2022-11-24T12:34:07.301Z,7.9
2022-11-24T12:39:09.747Z,8.2
2022-11-24T12:44:12.201Z,8.1
2022-11-24T12:49:14.997Z,8.1
2022-11-24T12:54:17.069Z,8.2
2022-11-24T12:59:19.002Z,8.4
2022-11-24T13:04:21.120Z,8.5
2022-11-24T13:09:23.270Z,8.6
2022-11-24T13:14:25.503Z,8.6
2022-11-24T13:19:27.727Z,8.5
2022-11-24T13:24:30.148Z,8.4
2022-11-24T13:29:32.757Z,7.7
2022-11-24T13:34:36.453Z,7.5
2022-11-24T13:39:50.445Z,7.4
2022-11-24T13:44:42.858Z,7.4
2022-11-24T13:49:45.579Z,7.2
2022-11-24T13:54:47.920Z,7.2
2022-11-24T13:59:50.949Z,7.2
2022-11-24T14:04:53.132Z,7.2
2022-11-24T14:09:55.302Z,7.2
2022-11-24T14:14:57.853Z,7.1
2022-11-24T14:20:00.210Z,7
2022-11-24T14:25:02.483Z,7
2022-11-24T14:30:04.752Z,7
2022-11-24T14:35:07.681Z,6.9
2022-11-24T14:40:10.104Z,6.7
2022-11-24T14:45:12.269Z,6.6
2022-11-24T14:50:14.793Z,6.5
2022-11-24T14:55:25.110Z,6.3
2022-11-24T15:00:17.234Z,6.2
2022-11-24T15:05:19.375Z,6.2
2022-11-24T15:10:21.403Z,6.1
2022-11-24T15:15:23.415Z,6.1
2022-11-24T15:20:25.439Z,6
2022-11-24T15:25:27.685Z,6.1
2022-11-24T15:30:29.885Z,6
2022-11-24T15:35:31.855Z,6
2022-11-24T15:40:34.136Z,6.1
2022-11-24T15:45:36.106Z,6.1
2022-11-24T15:50:38.146Z,6.1
2022-11-24T15:55:40.184Z,6.2
2022-11-24T16:00:42.445Z,6.1
2022-11-24T16:05:44.637Z,6.1
2022-11-24T16:10:46.677Z,6
2022-11-24T16:15:48.752Z,6
2022-11-24T16:20:50.767Z,5.9
2022-11-24T16:25:53.521Z,5.6
2022-11-24T16:30:55.718Z,5.6
2022-11-24T16:35:57.791Z,5.5
2022-11-24T16:40:59.851Z,5.4
2022-11-24T16:46:02.127Z,5.2
2022-11-24T16:51:04.257Z,5.1
2022-11-24T16:56:06.346Z,5
2022-11-24T17:01:08.833Z,4.8
2022-11-24T17:06:10.865Z,4.8
2022-11-24T17:11:13.154Z,4.7
2022-11-24T17:16:15.395Z,4.6
2022-11-24T17:21:17.618Z,4.5
2022-11-24T17:26:19.684Z,4.4
2022-11-24T17:31:21.760Z,4.3
2022-11-24T17:36:24.078Z,4.2
2022-11-24T17:41:26.372Z,4.2
2022-11-24T17:46:28.874Z,4.1
2022-11-24T17:51:30.960Z,4
2022-11-24T17:56:32.999Z,4.1
2022-11-24T18:01:35.494Z,3.9
2022-11-24T18:06:37.789Z,3.9
2022-11-24T18:11:39.873Z,3.9
2022-11-24T18:16:42.415Z,3.8
2022-11-24T18:21:44.588Z,3.7
2022-11-24T18:26:46.844Z,3.7
2022-11-24T18:31:48.991Z,3.7
2022-11-24T18:36:51.248Z,3.6
2022-11-24T18:41:53.557Z,3.6
2022-11-24T18:46:55.937Z,3.5
2022-11-24T18:51:58.627Z,3.5
2022-11-24T18:57:05.317Z,3.4
2022-11-24T19:02:07.866Z,3.4
2022-11-24T19:07:10.117Z,3.4
2022-11-24T19:12:12.254Z,3.7
2022-11-24T19:17:14.225Z,3.7
2022-11-24T19:22:16.401Z,3.5
2022-11-24T19:27:18.533Z,3.4
2022-11-24T19:32:20.539Z,3.4
2022-11-24T19:37:22.617Z,3.4
2022-11-24T19:42:24.681Z,3.3
2022-11-24T19:47:27.144Z,3.2
2022-11-24T19:52:29.370Z,3.2
2022-11-24T19:57:31.325Z,3.1
2022-11-24T20:02:33.477Z,3
2022-11-24T20:07:36.103Z,2.8
2022-11-24T20:12:39.442Z,2.8
2022-11-24T20:17:41.358Z,2.7
2022-11-24T20:22:43.440Z,2.7
2022-11-24T20:32:46.636Z,2.6
2022-11-24T20:37:48.649Z,2.6
2022-11-24T20:42:50.607Z,2.6
2022-11-24T20:47:52.644Z,2.5
2022-11-24T20:52:54.696Z,2.5
2022-11-24T20:57:56.826Z,2.6
2022-11-24T21:02:58.996Z,2.6
2022-11-24T21:08:00.970Z,2.6
2022-11-24T21:13:02.997Z,2.6
2022-11-24T21:18:04.975Z,2.5
2022-11-24T21:23:06.931Z,2.5
2022-11-24T21:28:09.033Z,2.5
2022-11-24T21:33:11.145Z,2.4
2022-11-24T21:38:14.304Z,2.3
2022-11-24T21:43:16.586Z,2.2
2022-11-24T21:48:18.595Z,2.2
2022-11-24T21:53:20.640Z,2.2
2022-11-24T21:58:22.635Z,2.2
2022-11-24T22:03:24.615Z,2.2
2022-11-24T22:08:26.585Z,2.1
2022-11-24T22:13:28.637Z,2.1
2022-11-24T22:18:30.732Z,2.1
2022-11-24T22:23:32.928Z,2.1
2022-11-24T22:28:35.089Z,2.1
2022-11-24T22:33:37.127Z,2.1
2022-11-24T22:38:39.189Z,2.1
2022-11-24T22:43:41.247Z,2
2022-11-24T22:48:43.297Z,2
2022-11-24T22:53:45.413Z,1.9
2022-11-24T22:58:47.493Z,1.8
2022-11-24T23:03:49.683Z,1.7
2022-11-24T23:08:51.823Z,1.7
2022-11-24T23:13:54.225Z,1.7
2022-11-24T23:18:56.220Z,1.7
2022-11-24T23:23:58.213Z,1.7
2022-11-24T23:29:00.345Z,1.8
2022-11-24T23:34:02.743Z,1.7
2022-11-24T23:39:04.771Z,1.8
2022-11-24T23:44:06.768Z,1.9
2022-11-24T23:49:08.746Z,1.9
2022-11-24T23:54:10.830Z,2
2022-11-24T23:59:12.862Z,2.1
